createdAt,value
2023-05-05T00:04:13.911Z,56.82
2023-05-05T00:14:22.966Z,58.13
2023-05-05T00:24:24.970Z,60.46
2023-05-05T00:34:26.905Z,64.16
2023-05-05T00:44:41.194Z,59.62
2023-05-05T00:54:43.181Z,59.94
2023-05-05T01:04:52.913Z,59.14
2023-05-05T01:15:32.795Z,59.30
2023-05-05T01:25:54.864Z,61.08
2023-05-05T01:36:22.987Z,63.80
2023-05-05T01:46:25.217Z,60.69
2023-05-05T01:56:29.124Z,61.00
2023-05-05T02:06:56.842Z,61.97
2023-05-05T02:16:59.959Z,61.38
2023-05-05T02:27:06.507Z,60.61
2023-05-05T02:37:12.847Z,60.86
2023-05-05T02:47:39.524Z,60.72
2023-05-05T02:57:56.246Z,60.25
2023-05-05T03:08:28.559Z,59.32
2023-05-05T03:18:32.062Z,60.02
2023-05-05T03:28:33.923Z,60.62
2023-05-05T03:38:35.867Z,61.73
2023-05-05T03:48:37.777Z,61.25
2023-05-05T03:58:39.718Z,57.63
2023-05-05T04:08:44.686Z,53.72
2023-05-05T04:18:55.566Z,52.21
2023-05-05T04:29:02.707Z,51.23
2023-05-05T04:39:04.718Z,52.39
2023-05-05T04:49:16.250Z,52.87
2023-05-05T04:59:36.772Z,50.30
2023-05-05T05:10:04.298Z,50.74
2023-05-05T05:20:08.193Z,50.92
2023-05-05T05:30:10.809Z,51.30
2023-05-05T05:40:13.221Z,47.89
2023-05-05T05:50:15.748Z,49.36
2023-05-05T06:00:17.949Z,47.16
2023-05-05T06:10:27.901Z,46.22
2023-05-05T06:20:39.676Z,44.09
2023-05-05T06:30:44.671Z,43.90
2023-05-05T06:40:53.710Z,45.21
2023-05-05T06:51:06.978Z,36.45
2023-05-05T07:01:09.090Z,37.28
2023-05-05T07:11:12.114Z,39.78
2023-05-05T07:21:16.101Z,37.19
2023-05-05T07:31:26.077Z,33.14
2023-05-05T07:41:28.091Z,35.02
2023-05-05T07:51:34.404Z,33.97
2023-05-05T08:01:39.553Z,32.74
2023-05-05T08:11:41.487Z,32.07
2023-05-05T08:21:49.440Z,34.79
2023-05-05T08:31:51.495Z,33.65
2023-05-05T08:41:53.453Z,35.64
2023-05-05T08:52:05.704Z,36.49
2023-05-05T09:02:10.324Z,36.01
2023-05-05T09:12:30.819Z,36.06
2023-05-05T09:22:39.011Z,36.85
2023-05-05T09:32:50.335Z,37.48
2023-05-05T09:43:02.163Z,35.42
2023-05-05T09:53:04.492Z,37.27
2023-05-05T10:03:08.561Z,36.52
2023-05-05T10:13:19.857Z,36.15
2023-05-05T10:23:24.256Z,36.52
2023-05-05T10:33:35.976Z,39.45
2023-05-05T10:43:44.328Z,39.16
2023-05-05T10:54:10.561Z,41.79
2023-05-05T11:04:23.440Z,41.02
2023-05-05T11:14:35.737Z,41.83
2023-05-05T11:24:39.948Z,42.33
2023-05-05T11:34:52.044Z,42.82
2023-05-05T11:45:19.963Z,44.48
2023-05-05T11:55:23.229Z,44.54
2023-05-05T12:05:25.438Z,44.48
2023-05-05T12:15:33.868Z,43.78
2023-05-05T12:25:39.350Z,45.50
2023-05-05T12:35:51.562Z,46.27
2023-05-05T12:46:12.857Z,45.72
2023-05-05T12:56:40.828Z,48.01
2023-05-05T13:06:48.700Z,46.07
2023-05-05T13:16:53.276Z,45.63
2023-05-05T13:26:56.089Z,47.48
2023-05-05T13:37:01.285Z,47.46
2023-05-05T13:47:03.537Z,47.51
2023-05-05T13:57:20.926Z,48.22
2023-05-05T14:07:28.916Z,46.24
2023-05-05T14:17:30.898Z,48.40
2023-05-05T14:27:32.847Z,46.91
2023-05-05T14:37:35.070Z,48.10
2023-05-05T14:47:37.073Z,47.37
2023-05-05T14:57:44.177Z,48.13
2023-05-05T15:07:48.577Z,47.12
2023-05-05T15:17:51.708Z,47.51
2023-05-05T15:27:54.155Z,47.29
2023-05-05T15:37:56.181Z,46.51
2023-05-05T15:47:58.212Z,45.10
2023-05-05T15:58:00.172Z,45.00
2023-05-05T16:08:13.119Z,46.49
2023-05-05T16:18:16.284Z,46.42
2023-05-05T16:28:18.835Z,44.72
2023-05-05T16:38:21.964Z,46.59
2023-05-05T16:48:28.061Z,47.31
2023-05-05T16:58:32.667Z,48.74
2023-05-05T17:09:00.199Z,46.54
2023-05-05T17:19:11.135Z,45.68
2023-05-05T17:29:15.607Z,47.87
2023-05-05T17:39:22.518Z,49.05
2023-05-05T17:49:25.579Z,50.17
2023-05-05T17:59:27.420Z,52.33
2023-05-05T18:09:31.646Z,53.56
2023-05-05T18:19:46.627Z,53.56
2023-05-05T18:29:54.983Z,54.18
2023-05-05T18:39:56.982Z,54.94
2023-05-05T18:50:00.208Z,55.52
2023-05-05T19:00:03.380Z,57.16
2023-05-05T19:10:11.763Z,58.50
2023-05-05T19:20:17.468Z,58.23
2023-05-05T19:30:19.429Z,58.92
2023-05-05T19:40:21.456Z,60.67
2023-05-05T19:50:28.036Z,60.16
2023-05-05T20:00:30.077Z,62.02
2023-05-05T20:10:32.203Z,61.09
2023-05-05T20:20:35.295Z,62.83
2023-05-05T20:30:37.359Z,61.85
2023-05-05T20:40:42.231Z,61.28
2023-05-05T20:50:44.370Z,59.65
2023-05-05T21:00:47.534Z,60.06
2023-05-05T21:10:49.559Z,60.03
2023-05-05T21:20:54.660Z,60.55
2023-05-05T21:31:19.894Z,60.55
2023-05-05T21:41:18.521Z,60.12
2023-05-05T21:51:20.505Z,61.40
2023-05-05T22:01:22.457Z,62.34
2023-05-05T22:11:24.491Z,61.44
2023-05-05T22:21:27.782Z,62.56
2023-05-05T22:31:44.159Z,62.86
2023-05-05T22:41:46.858Z,63.76
2023-05-05T22:51:48.914Z,63.71
2023-05-05T23:01:50.850Z,63.83
2023-05-05T23:11:52.806Z,63.44
2023-05-05T23:21:55.194Z,63.45
2023-05-05T23:31:57.762Z,63.94
2023-05-05T23:41:59.686Z,65.06
2023-05-05T23:52:01.701Z,64.76
